createdAt,value
2022-08-04T00:02:11.064Z,2.97
2022-08-04T00:05:02.830Z,2.60
2022-08-04T00:08:21.784Z,2.63
2022-08-04T00:10:59.878Z,2.50
2022-08-04T00:13:52.697Z,2.60
2022-08-04T00:16:44.223Z,2.13
2022-08-04T00:19:33.359Z,2.47
2022-08-04T00:22:13.322Z,2.17
2022-08-04T00:24:42.618Z,2.30
2022-08-04T00:27:10.156Z,1.87
2022-08-04T00:29:39.997Z,2.67
2022-08-04T00:32:09.361Z,2.30
2022-08-04T00:34:38.090Z,2.27
2022-08-04T00:37:16.925Z,2.73
2022-08-04T00:39:47.400Z,2.77
2022-08-04T00:42:58.949Z,4.17
2022-08-04T00:46:15.679Z,2.30
2022-08-04T00:49:44.839Z,2.53
2022-08-04T00:52:55.871Z,2.80
2022-08-04T00:56:16.871Z,3.40
2022-08-04T00:59:29.377Z,2.50
2022-08-04T01:02:28.879Z,2.87
2022-08-04T01:05:23.094Z,2.50
2022-08-04T01:08:38.936Z,2.70
2022-08-04T01:11:56.673Z,2.70
2022-08-04T01:15:15.324Z,2.10
2022-08-04T01:18:02.235Z,2.60
2022-08-04T01:21:00.560Z,2.40
2022-08-04T01:24:18.659Z,2.60
2022-08-04T01:27:18.666Z,2.73
2022-08-04T01:29:59.131Z,2.10
2022-08-04T01:33:14.821Z,3.00
2022-08-04T01:35:54.952Z,2.50
2022-08-04T01:38:40.923Z,2.97
2022-08-04T01:41:15.176Z,2.60
2022-08-04T01:43:47.049Z,2.67
2022-08-04T01:46:18.248Z,3.43
2022-08-04T01:48:53.913Z,2.30
2022-08-04T01:51:26.139Z,2.50
2022-08-04T01:53:53.681Z,3.80
2022-08-04T01:56:25.156Z,2.10
2022-08-04T01:59:05.853Z,2.97
2022-08-04T02:01:37.694Z,3.07
2022-08-04T02:04:21.273Z,2.50
2022-08-04T02:08:23.439Z,2.90
2022-08-04T02:11:24.008Z,2.83
2022-08-04T02:14:41.070Z,3.00
2022-08-04T02:17:19.984Z,2.10
2022-08-04T02:20:19.385Z,2.40
2022-08-04T02:23:37.562Z,2.57
2022-08-04T02:26:22.794Z,2.50
2022-08-04T02:29:19.539Z,2.50
2022-08-04T02:32:04.477Z,2.90
2022-08-04T02:35:08.961Z,2.60
2022-08-04T02:37:37.696Z,2.10
2022-08-04T02:40:12.253Z,2.50
2022-08-04T02:42:39.902Z,3.00
2022-08-04T02:45:09.767Z,3.17
2022-08-04T02:48:30.735Z,2.87
2022-08-04T02:50:30.801Z,2.97
2022-08-04T02:53:09.901Z,3.37
2022-08-04T02:55:50.953Z,3.20
2022-08-04T02:58:33.583Z,2.20
2022-08-04T03:01:01.838Z,3.33
2022-08-04T03:04:01.794Z,2.73
2022-08-04T03:07:06.720Z,3.40
2022-08-04T03:10:51.838Z,2.63
2022-08-04T03:13:53.537Z,2.77
2022-08-04T03:16:55.038Z,3.03
2022-08-04T03:20:08.604Z,2.60
2022-08-04T03:23:44.902Z,3.50
2022-08-04T03:27:12.319Z,2.70
2022-08-04T03:30:26.405Z,2.93
2022-08-04T03:33:38.418Z,2.63
2022-08-04T03:37:35.520Z,2.60
2022-08-04T03:41:59.955Z,3.53
2022-08-04T03:45:24.456Z,3.60
2022-08-04T03:48:59.355Z,2.90
2022-08-04T03:52:34.901Z,3.63
2022-08-04T03:55:51.371Z,3.00
2022-08-04T03:59:04.965Z,3.17
2022-08-04T04:02:39.741Z,3.73
2022-08-04T04:06:00.197Z,2.93
2022-08-04T04:10:01.219Z,3.93
2022-08-04T04:13:35.277Z,3.20
2022-08-04T04:17:10.095Z,2.87
2022-08-04T04:21:05.017Z,3.20
2022-08-04T04:23:45.018Z,3.27
2022-08-04T04:27:30.519Z,3.60
2022-08-04T04:30:31.712Z,3.90
2022-08-04T04:34:26.606Z,3.10
2022-08-04T04:37:33.652Z,3.17
2022-08-04T04:40:56.889Z,3.40
2022-08-04T04:44:30.674Z,4.00
2022-08-04T04:47:43.325Z,3.60
2022-08-04T04:50:50.703Z,3.40
2022-08-04T04:54:06.256Z,3.00
2022-08-04T04:57:04.337Z,3.30
2022-08-04T04:59:42.539Z,3.37
2022-08-04T05:03:09.361Z,3.23
2022-08-04T05:06:56.272Z,4.50
2022-08-04T05:10:22.058Z,3.37
2022-08-04T05:14:36.437Z,4.40
2022-08-04T05:16:40.619Z,3.30
2022-08-04T05:19:41.489Z,3.90
2022-08-04T05:22:47.608Z,4.00
2022-08-04T05:25:36.577Z,4.47
2022-08-04T05:28:55.023Z,3.70
2022-08-04T05:31:38.135Z,4.50
2022-08-04T05:34:26.840Z,5.20
2022-08-04T05:37:07.816Z,4.43
2022-08-04T05:39:49.887Z,4.40
2022-08-04T05:42:17.577Z,4.00
2022-08-04T05:44:50.914Z,4.97
2022-08-04T05:47:21.636Z,4.07
2022-08-04T05:50:01.694Z,4.20
2022-08-04T05:52:33.117Z,4.20
2022-08-04T05:55:03.339Z,4.40
2022-08-04T05:57:33.561Z,4.53
2022-08-04T06:00:31.741Z,4.70
2022-08-04T06:02:58.786Z,4.33
2022-08-04T06:05:28.250Z,4.57
2022-08-04T06:08:11.888Z,4.27
2022-08-04T06:10:46.315Z,3.70
2022-08-04T06:13:49.202Z,3.40
2022-08-04T06:16:29.246Z,4.27
2022-08-04T06:20:00.491Z,3.70
2022-08-04T06:22:02.663Z,3.57
2022-08-04T06:24:33.826Z,3.03
2022-08-04T06:27:06.446Z,3.90
2022-08-04T06:29:40.992Z,3.35
2022-08-04T06:32:33.794Z,3.22
2022-08-04T06:35:08.422Z,3.40
2022-08-04T06:37:43.462Z,3.58
2022-08-04T06:40:31.435Z,3.53
2022-08-04T06:43:07.932Z,3.58
2022-08-04T06:45:41.445Z,3.38
2022-08-04T06:48:17.344Z,4.28
2022-08-04T06:51:24.918Z,3.42
2022-08-04T06:53:38.701Z,3.40
2022-08-04T06:56:09.743Z,3.65
2022-08-04T06:58:41.116Z,3.67
2022-08-04T07:01:10.611Z,3.75
2022-08-04T07:03:38.880Z,4.03
2022-08-04T07:06:14.572Z,4.07
2022-08-04T07:08:43.460Z,3.90
2022-08-04T07:11:13.140Z,3.80
2022-08-04T07:13:45.485Z,3.73
2022-08-04T07:16:20.835Z,4.10
2022-08-04T07:18:58.667Z,4.15
2022-08-04T07:21:40.094Z,3.75
2022-08-04T07:24:08.124Z,3.58
2022-08-04T07:26:35.861Z,3.30
2022-08-04T07:29:04.341Z,3.47
2022-08-04T07:31:36.258Z,3.55
2022-08-04T07:34:21.409Z,4.07
2022-08-04T07:36:56.627Z,3.00
2022-08-04T07:39:47.841Z,3.40
2022-08-04T07:42:21.414Z,3.80
2022-08-04T07:44:49.986Z,4.45
2022-08-04T07:47:23.541Z,4.05
2022-08-04T07:49:56.572Z,3.85
2022-08-04T07:52:29.842Z,3.55
2022-08-04T07:54:58.850Z,3.80
2022-08-04T07:57:41.518Z,3.55
2022-08-04T08:00:15.321Z,3.75
2022-08-04T08:02:48.502Z,2.75
2022-08-04T08:05:21.300Z,2.90
2022-08-04T08:07:54.781Z,2.88
2022-08-04T08:10:25.319Z,2.58
2022-08-04T08:12:54.613Z,2.83
2022-08-04T08:15:23.465Z,2.80
2022-08-04T08:17:58.350Z,2.60
2022-08-04T08:20:33.163Z,2.40
2022-08-04T08:23:03.979Z,2.40
2022-08-04T08:25:34.567Z,2.80
2022-08-04T08:28:06.771Z,2.33
2022-08-04T08:30:52.578Z,2.13
2022-08-04T08:33:28.896Z,2.40
2022-08-04T08:36:37.846Z,3.20
2022-08-04T08:39:29.988Z,2.83
2022-08-04T08:44:05.968Z,2.22
2022-08-04T08:47:05.600Z,2.50
2022-08-04T08:50:25.354Z,2.83
2022-08-04T08:53:31.235Z,2.13
2022-08-04T08:56:33.524Z,2.13
2022-08-04T09:00:47.353Z,2.47
2022-08-04T09:04:31.982Z,2.03
2022-08-04T09:07:31.179Z,2.78
2022-08-04T09:10:50.931Z,2.55
2022-08-04T09:14:04.595Z,2.38
2022-08-04T09:17:14.403Z,2.30
2022-08-04T09:20:45.244Z,2.50
2022-08-04T09:24:35.188Z,1.98
2022-08-04T09:27:25.043Z,2.35
2022-08-04T09:30:12.352Z,2.75
2022-08-04T09:34:01.441Z,2.63
2022-08-04T09:37:45.895Z,3.03
2022-08-04T09:41:20.701Z,2.72
2022-08-04T09:44:51.293Z,2.95
2022-08-04T09:48:07.288Z,3.28
2022-08-04T09:50:55.160Z,3.72
2022-08-04T09:54:34.261Z,3.60
2022-08-04T09:58:03.483Z,4.25
2022-08-04T10:00:54.891Z,4.30
2022-08-04T10:03:42.031Z,4.10
2022-08-04T10:07:08.543Z,4.43
2022-08-04T10:10:22.736Z,3.63
2022-08-04T10:13:14.004Z,4.50
2022-08-04T10:16:35.469Z,3.85
2022-08-04T10:20:05.050Z,2.95
2022-08-04T10:23:12.555Z,3.42
2022-08-04T10:26:47.885Z,3.90
2022-08-04T10:29:59.042Z,3.40
2022-08-04T10:32:45.432Z,3.03
2022-08-04T10:35:22.292Z,3.00
2022-08-04T10:38:31.961Z,3.67
2022-08-04T10:42:22.862Z,3.22
2022-08-04T10:45:23.875Z,3.35
2022-08-04T10:48:19.259Z,2.40
2022-08-04T10:51:57.069Z,3.50
2022-08-04T10:55:05.102Z,2.57
2022-08-04T10:58:12.864Z,2.70
2022-08-04T11:00:46.057Z,2.60
2022-08-04T11:03:48.638Z,2.53
2022-08-04T11:06:19.292Z,2.73
2022-08-04T11:08:55.965Z,2.83
2022-08-04T11:11:56.980Z,3.10
2022-08-04T11:14:57.069Z,3.20
2022-08-04T11:17:41.135Z,3.40
2022-08-04T11:20:43.474Z,2.97
2022-08-04T11:23:17.608Z,1.97
2022-08-04T11:26:16.512Z,2.90
2022-08-04T11:29:19.016Z,3.20
2022-08-04T11:31:52.094Z,2.60
2022-08-04T11:34:28.750Z,3.03
2022-08-04T11:37:34.672Z,2.83
2022-08-04T11:40:28.897Z,2.77
2022-08-04T11:43:09.120Z,2.40
2022-08-04T11:46:00.621Z,2.87
2022-08-04T11:48:58.903Z,2.63
2022-08-04T11:51:31.812Z,3.13
2022-08-04T11:54:01.553Z,2.80
2022-08-04T11:56:35.802Z,2.53
2022-08-04T11:59:08.517Z,2.70
2022-08-04T12:02:21.026Z,3.20
2022-08-04T12:05:23.219Z,2.33
2022-08-04T12:08:23.187Z,2.67
2022-08-04T12:11:16.869Z,2.50
2022-08-04T12:14:44.560Z,3.20
2022-08-04T12:17:22.933Z,2.97
2022-08-04T12:20:31.692Z,3.10
2022-08-04T12:22:59.182Z,3.37
2022-08-04T12:25:44.916Z,2.60
2022-08-04T12:29:09.020Z,3.20
2022-08-04T12:32:20.325Z,3.50
2022-08-04T12:35:22.393Z,3.53
2022-08-04T12:38:11.952Z,3.23
2022-08-04T12:40:58.254Z,3.57
2022-08-04T12:43:43.696Z,3.33
2022-08-04T12:46:27.054Z,3.13
2022-08-04T12:49:06.206Z,3.13
2022-08-04T12:52:08.347Z,4.10
2022-08-04T12:54:37.582Z,4.60
2022-08-04T12:57:09.025Z,3.47
2022-08-04T12:59:57.048Z,4.53
2022-08-04T13:05:17.205Z,4.03
2022-08-04T13:07:54.538Z,2.97
2022-08-04T13:10:30.152Z,3.73
2022-08-04T13:13:00.996Z,3.60
2022-08-04T13:15:30.942Z,4.00
2022-08-04T13:21:22.921Z,3.93
2022-08-04T13:24:20.549Z,3.60
2022-08-04T13:27:16.466Z,2.70
2022-08-04T13:29:57.996Z,3.73
2022-08-04T13:30:24.715Z,3.77
2022-08-04T13:32:30.205Z,3.23
2022-08-04T13:35:02.400Z,3.57
2022-08-04T13:37:42.387Z,3.20
2022-08-04T13:40:16.547Z,3.43
2022-08-04T13:42:53.140Z,3.43
2022-08-04T13:45:34.921Z,3.83
2022-08-04T13:48:32.029Z,3.17
2022-08-04T13:50:55.084Z,3.10
2022-08-04T13:53:22.699Z,3.57
2022-08-04T13:56:00.379Z,3.07
2022-08-04T13:58:40.517Z,3.50
2022-08-04T14:01:35.918Z,3.47
2022-08-04T14:04:21.088Z,2.80
2022-08-04T14:07:03.478Z,2.93
2022-08-04T14:09:35.105Z,3.13
2022-08-04T14:12:45.284Z,3.10
2022-08-04T14:15:01.659Z,3.00
2022-08-04T14:17:30.504Z,3.50
2022-08-04T14:20:04.732Z,2.90
2022-08-04T14:22:37.347Z,3.03
2022-08-04T14:25:17.114Z,2.97
2022-08-04T14:27:53.551Z,3.17
2022-08-04T14:30:37.846Z,2.70
2022-08-04T14:34:01.575Z,2.93
2022-08-04T14:36:03.892Z,2.80
2022-08-04T14:39:00.738Z,2.20
2022-08-04T14:41:45.730Z,2.70
2022-08-04T14:44:13.830Z,2.73
2022-08-04T14:46:55.235Z,2.33
2022-08-04T14:49:24.035Z,3.03
2022-08-04T14:52:03.072Z,2.30
2022-08-04T14:54:35.920Z,3.10
2022-08-04T14:57:08.815Z,2.60
2022-08-04T15:00:00.466Z,2.40
2022-08-04T15:02:30.791Z,2.90
2022-08-04T15:05:59.847Z,3.00
2022-08-04T15:07:48.176Z,3.40
2022-08-04T15:10:16.653Z,2.57
2022-08-04T15:12:45.081Z,3.30
2022-08-04T15:15:35.389Z,3.20
2022-08-04T15:18:03.786Z,2.87
2022-08-04T15:20:33.001Z,2.83
2022-08-04T15:23:08.639Z,2.63
2022-08-04T15:25:55.944Z,2.47
2022-08-04T15:28:31.939Z,2.50
2022-08-04T15:31:11.725Z,3.70
2022-08-04T15:33:56.879Z,2.00
2022-08-04T15:36:42.681Z,2.30
2022-08-04T15:39:11.071Z,3.50
2022-08-04T15:42:20.945Z,2.10
2022-08-04T15:44:51.525Z,2.93
2022-08-04T15:47:20.766Z,2.80
2022-08-04T15:50:13.068Z,2.53
2022-08-04T15:53:12.454Z,2.40
2022-08-04T15:55:45.388Z,2.50
2022-08-04T15:58:17.532Z,2.80
2022-08-04T16:00:51.087Z,2.30
2022-08-04T16:03:54.250Z,2.80
2022-08-04T16:06:28.819Z,2.60
2022-08-04T16:09:05.452Z,2.93
2022-08-04T16:11:34.064Z,2.70
2022-08-04T16:14:04.957Z,2.60
2022-08-04T16:16:50.430Z,2.70
2022-08-04T16:19:51.943Z,2.73
2022-08-04T16:22:41.421Z,2.40
2022-08-04T16:25:10.357Z,2.50
2022-08-04T16:27:44.713Z,3.27
2022-08-04T16:30:15.486Z,5.30
2022-08-04T16:32:49.156Z,3.60
2022-08-04T16:35:28.766Z,4.43
2022-08-04T16:38:16.395Z,3.67
2022-08-04T16:40:44.495Z,3.33
2022-08-04T16:43:20.905Z,3.40
2022-08-04T16:46:01.535Z,3.47
2022-08-04T16:48:34.722Z,3.50
2022-08-04T16:51:14.609Z,2.40
2022-08-04T16:53:52.147Z,3.03
2022-08-04T16:56:35.429Z,2.80
2022-08-04T16:59:13.513Z,2.70
2022-08-04T17:01:53.478Z,2.90
2022-08-04T17:04:36.068Z,3.20
2022-08-04T17:07:06.929Z,3.30
2022-08-04T17:09:34.530Z,2.90
2022-08-04T17:12:02.896Z,3.13
2022-08-04T17:14:32.078Z,3.13
2022-08-04T17:17:04.403Z,3.63
2022-08-04T17:19:37.582Z,4.20
2022-08-04T17:22:14.662Z,3.60
2022-08-04T17:24:42.289Z,3.77
2022-08-04T17:28:09.005Z,3.53
2022-08-04T17:30:00.490Z,4.10
2022-08-04T17:32:28.500Z,4.13
2022-08-04T17:35:02.155Z,3.27
2022-08-04T17:37:39.999Z,4.13
2022-08-04T17:40:25.717Z,4.80
2022-08-04T17:44:00.900Z,4.17
2022-08-04T17:46:43.325Z,3.50
2022-08-04T17:49:31.779Z,3.20
2022-08-04T17:52:45.202Z,3.27
2022-08-04T17:55:16.221Z,3.63
2022-08-04T17:57:52.134Z,4.20
2022-08-04T18:00:20.501Z,3.67
2022-08-04T18:02:54.915Z,3.40
2022-08-04T18:05:54.039Z,3.40
2022-08-04T18:08:34.953Z,4.47
2022-08-04T18:11:18.252Z,3.50
2022-08-04T18:13:57.053Z,3.50
2022-08-04T18:16:25.285Z,3.83
2022-08-04T18:22:09.060Z,4.30
2022-08-04T18:27:32.774Z,4.30
2022-08-04T18:30:33.644Z,4.10
2022-08-04T18:33:24.266Z,3.77
2022-08-04T18:36:33.517Z,4.20
2022-08-04T18:38:36.303Z,4.10
2022-08-04T18:41:22.569Z,3.77
2022-08-04T18:43:55.916Z,5.60
2022-08-04T18:46:26.923Z,5.80
2022-08-04T18:48:55.743Z,4.40
2022-08-04T18:51:25.227Z,3.77
2022-08-04T18:53:59.540Z,4.00
2022-08-04T18:56:33.031Z,4.10
2022-08-04T18:59:10.280Z,4.30
2022-08-04T19:02:16.675Z,3.67
2022-08-04T19:04:32.903Z,3.93
2022-08-04T19:07:29.373Z,3.50
2022-08-04T19:09:58.099Z,4.00
2022-08-04T19:12:28.592Z,5.20
2022-08-04T19:15:10.288Z,4.67
2022-08-04T19:17:52.482Z,4.40
2022-08-04T19:20:25.712Z,3.90
2022-08-04T19:24:28.298Z,4.10
2022-08-04T19:26:01.439Z,4.00
2022-08-04T19:28:37.205Z,3.43
2022-08-04T19:31:10.623Z,3.80
2022-08-04T19:33:58.222Z,4.70
2022-08-04T19:36:33.242Z,3.57
2022-08-04T19:39:11.252Z,3.60
2022-08-04T19:42:06.695Z,3.90
2022-08-04T19:44:29.919Z,3.70
2022-08-04T19:47:00.707Z,3.60
2022-08-04T19:50:04.968Z,4.33
2022-08-04T19:52:34.240Z,4.13
2022-08-04T19:57:54.046Z,3.40
2022-08-04T20:00:33.009Z,3.70
2022-08-04T20:05:55.955Z,4.13
2022-08-04T20:08:30.081Z,4.20
2022-08-04T20:11:00.086Z,4.90
2022-08-04T20:13:37.213Z,4.27
2022-08-04T20:16:26.208Z,4.77
2022-08-04T20:19:00.801Z,4.03
2022-08-04T20:21:53.781Z,4.30
2022-08-04T20:24:38.644Z,3.80
2022-08-04T20:27:15.563Z,4.50
2022-08-04T20:29:52.479Z,3.90
2022-08-04T20:32:27.290Z,4.30
2022-08-04T20:34:57.909Z,3.90
2022-08-04T20:38:00.008Z,3.70
2022-08-04T20:40:16.231Z,3.70
2022-08-04T20:42:46.263Z,3.83
2022-08-04T20:45:16.430Z,3.80
2022-08-04T20:47:54.012Z,2.97
2022-08-04T20:50:30.055Z,3.60
2022-08-04T20:52:59.622Z,2.70
2022-08-04T20:55:29.807Z,2.50
2022-08-04T20:58:03.022Z,2.23
2022-08-04T21:00:32.538Z,2.70
2022-08-04T21:03:01.909Z,2.30
2022-08-04T21:05:31.345Z,2.10
2022-08-04T21:08:01.758Z,2.40
2022-08-04T21:10:29.767Z,1.97
2022-08-04T21:12:57.455Z,1.97
2022-08-04T21:15:26.453Z,2.40
2022-08-04T21:18:14.861Z,2.50
2022-08-04T21:20:45.210Z,1.97
2022-08-04T21:23:16.086Z,2.20
2022-08-04T21:25:45.678Z,2.70
2022-08-04T21:28:20.428Z,2.27
2022-08-04T21:30:53.906Z,2.20
2022-08-04T21:33:49.776Z,2.37
2022-08-04T21:36:18.533Z,2.67
2022-08-04T21:38:51.190Z,2.07
2022-08-04T21:41:24.906Z,1.80
2022-08-04T21:43:56.348Z,2.40
2022-08-04T21:46:29.984Z,2.90
2022-08-04T21:48:59.197Z,2.10
2022-08-04T21:51:59.400Z,2.60
2022-08-04T21:54:26.500Z,2.20
2022-08-04T21:56:54.026Z,2.10
2022-08-04T21:59:24.009Z,2.87
2022-08-04T22:02:01.628Z,1.90
2022-08-04T22:04:31.043Z,2.37
2022-08-04T22:07:03.012Z,1.97
2022-08-04T22:09:31.368Z,2.30
2022-08-04T22:12:07.285Z,2.40
2022-08-04T22:14:39.543Z,2.20
2022-08-04T22:17:07.403Z,2.47
2022-08-04T22:19:55.289Z,2.17
2022-08-04T22:22:29.276Z,2.30
2022-08-04T22:25:12.295Z,2.73
2022-08-04T22:28:02.562Z,2.50
2022-08-04T22:30:37.735Z,2.47
2022-08-04T22:33:08.847Z,2.80
2022-08-04T22:35:44.228Z,2.97
2022-08-04T22:38:25.363Z,2.77
2022-08-04T22:41:16.782Z,2.90
2022-08-04T22:43:54.622Z,3.10
2022-08-04T22:46:30.282Z,3.93
2022-08-04T22:48:57.999Z,4.90
2022-08-04T22:51:26.988Z,4.27
2022-08-04T22:53:54.881Z,4.00
2022-08-04T22:56:37.969Z,4.70
2022-08-04T22:59:11.353Z,4.33
2022-08-04T23:01:59.180Z,5.57
2022-08-04T23:04:32.525Z,4.93
2022-08-04T23:07:09.113Z,5.67
2022-08-04T23:09:50.895Z,5.20
2022-08-04T23:12:26.411Z,6.77
2022-08-04T23:14:58.240Z,6.13
2022-08-04T23:17:29.121Z,6.17
2022-08-04T23:19:59.093Z,5.90
2022-08-04T23:22:41.272Z,6.07
2022-08-04T23:25:15.696Z,7.20
2022-08-04T23:27:51.560Z,6.03
2022-08-04T23:30:30.096Z,6.63
2022-08-04T23:32:58.914Z,6.10
2022-08-04T23:35:27.009Z,6.67
2022-08-04T23:37:56.713Z,6.53
2022-08-04T23:40:33.435Z,6.47
2022-08-04T23:43:12.200Z,7.60
2022-08-04T23:46:06.621Z,7.43
2022-08-04T23:48:39.109Z,7.10
2022-08-04T23:51:15.604Z,7.20
2022-08-04T23:54:01.772Z,7.40
2022-08-04T23:56:35.727Z,7.17
2022-08-04T23:59:05.718Z,7.60
